This is the latest recevied weather packets stored in our database for station/object CE3SUR-17. If no packets are shown the sender has not sent any weather packets the latest 10 day(s).
| Time | Temp. | Humidity | Pressure | Rain* | Wind** | Luminosity | Snow |
|---|---|---|---|---|---|---|---|
| 1777777128 | 22.78° C | 46% | 959.4 hPa | - | - | - | - |
| 1777775328 | 23.33° C | 46% | 958.9 hPa | - | - | - | - |
| 1777773527 | 23.89° C | 46% | 958.5 hPa | - | - | - | - |
| 1777768127 | 25° C | 45% | 959 hPa | - | - | - | - |
| 1777766327 | 26.11° C | 45% | 958.7 hPa | - | - | - | - |
| 1777760924 | 27.78° C | 44% | 957.5 hPa | - | - | - | - |
| 1777757326 | 29.44° C | 43% | 957.2 hPa | - | - | - | - |
| 1777755526 | 30.56° C | 42% | 956.9 hPa | - | - | - | - |
| 1777753726 | 31.11° C | 42% | 956.8 hPa | - | - | - | - |
| 1777751925 | 30.56° C | 43% | 956.8 hPa | - | - | - | - |
| 1777750125 | 30° C | 43% | 956.8 hPa | - | - | - | - |
| 1777748325 | 29.44° C | 43% | 956.8 hPa | - | - | - | - |
| 1777744725 | 27.78° C | 44% | 957 hPa | - | - | - | - |
| 1777741124 | 25.56° C | 45% | 957.5 hPa | - | - | - | - |
| 1777739324 | 23.89° C | 46% | 958 hPa | - | - | - | - |
| 1777737525 | 23.33° C | 46% | 958.3 hPa | - | - | - | - |
| 1777735725 | 21.67° C | 47% | 958.7 hPa | - | - | - | - |
| 1777733925 | 20.56° C | 48% | 959 hPa | - | - | - | - |
| 1777732124 | 19.44° C | 49% | 959.4 hPa | - | - | - | - |
| 1777730324 | 18.33° C | 49% | 959.5 hPa | - | - | - | - |
| 1777728524 | 17.22° C | 50% | 959.7 hPa | - | - | - | - |
| 1777726724 | 16.11° C | 51% | 959.7 hPa | - | - | - | - |
| 1777724924 | 15.56° C | 51% | 959.6 hPa | - | - | - | - |
| 1777723123 | 15° C | 51% | 959.5 hPa | - | - | - | - |
| 1777721323 | 15° C | 51% | 959.2 hPa | - | - | - | - |
* Rain since midnight (hover to see other rain measurements)
** Current wind speed in m/s (hover to see current wind gust speed)